Time;durP1;ratioP1;P1;durP2;ratioP2;P2;SDS_P1;SDS_P2;PMS_P1;PMS_P2;Temp;Humidity;BMP_temperature;BMP_pressure;BME280_temperature;BME280_humidity;BME280_pressure;Samples;Min_cycle;Max_cycle;Signal;HPM_P1;HPM_P2
2023/07/25 00:00:51;;;;;;;4.43;4.05;;;;;;;;;;5076643;28;20029;-82
2023/07/25 00:03:17;;;;;;;4.97;4.25;;;;;;;;;;5076770;28;20082;-75
2023/07/25 00:05:42;;;;;;;5.50;4.72;;;;;;;;;;5076728;28;20096;-74
2023/07/25 00:08:07;;;;;;;7.10;4.75;;;;;;;;;;5076299;28;20028;-75
2023/07/25 00:10:34;;;;;;;5.57;4.22;;;;;;;;;;5076436;28;20029;-74
2023/07/25 00:12:59;;;;;;;4.95;4.07;;;;;;;;;;5076099;28;20119;-74
2023/07/25 00:15:24;;;;;;;6.93;4.65;;;;;;;;;;5076207;28;20059;-75
2023/07/25 00:17:50;;;;;;;50.70;22.92;;;;;;;;;;5075950;28;20020;-78
2023/07/25 00:20:15;;;;;;;7.00;5.88;;;;;;;;;;5074576;28;20032;-76
2023/07/25 00:22:41;;;;;;;34.53;14.82;;;;;;;;;;5075903;28;20033;-75
2023/07/25 00:25:06;;;;;;;54.70;22.02;;;;;;;;;;5075910;28;20031;-74
2023/07/25 00:27:33;;;;;;;10.80;6.18;;;;;;;;;;5075736;28;20025;-74
2023/07/25 00:29:58;;;;;;;6.00;4.82;;;;;;;;;;5074461;28;20032;-74
2023/07/25 00:32:23;;;;;;;9.40;6.32;;;;;;;;;;5074363;28;20082;-75
2023/07/25 00:34:52;;;;;;;6.45;4.65;;;;;;;;;;5074534;28;20032;-76
2023/07/25 00:37:17;;;;;;;6.68;3.97;;;;;;;;;;5074304;28;20039;-73
2023/07/25 00:39:42;;;;;;;6.57;4.43;;;;;;;;;;5074103;28;20028;-73
2023/07/25 00:42:08;;;;;;;8.10;4.20;;;;;;;;;;5075335;28;20043;-74
2023/07/25 00:44:33;;;;;;;6.32;3.95;;;;;;;;;;5075696;28;20074;-75
2023/07/25 00:46:59;;;;;;;4.97;4.47;;;;;;;;;;5075310;28;20090;-77
2023/07/25 00:49:24;;;;;;;4.88;4.07;;;;;;;;;;5075582;28;20029;-82
2023/07/25 00:51:53;;;;;;;4.53;4.13;;;;;;;;;;5072568;28;20036;-82
2023/07/25 00:54:18;;;;;;;7.53;6.10;;;;;;;;;;5074242;28;20059;-74
2023/07/25 00:56:44;;;;;;;9.30;6.13;;;;;;;;;;5075488;28;20474;-74
2023/07/25 00:59:09;;;;;;;7.78;5.50;;;;;;;;;;5074303;28;20032;-76
2023/07/25 01:01:36;;;;;;;8.48;6.90;;;;;;;;;;5074622;28;20124;-74
2023/07/25 01:04:01;;;;;;;5.90;5.28;;;;;;;;;;5074133;28;20051;-74
2023/07/25 01:06:27;;;;;;;4.85;4.40;;;;;;;;;;5074204;28;20020;-74
2023/07/25 01:08:53;;;;;;;4.90;4.18;;;;;;;;;;5074216;28;20091;-75
2023/07/25 01:11:20;;;;;;;4.95;4.45;;;;;;;;;;5073664;28;20036;-75
2023/07/25 01:13:45;;;;;;;20.30;11.05;;;;;;;;;;5074952;28;20095;-74
2023/07/25 01:16:13;;;;;;;28.40;13.63;;;;;;;;;;5074173;28;20154;-75
2023/07/25 01:18:39;;;;;;;13.93;8.52;;;;;;;;;;5074894;28;20511;-77
2023/07/25 01:21:05;;;;;;;38.25;18.10;;;;;;;;;;5073651;28;20060;-78
2023/07/25 01:23:30;;;;;;;11.25;6.28;;;;;;;;;;5074556;28;20072;-76
2023/07/25 01:25:56;;;;;;;8.93;5.10;;;;;;;;;;5074554;28;20021;-78
2023/07/25 01:28:21;;;;;;;22.55;10.52;;;;;;;;;;5075073;28;20437;-76
2023/07/25 01:30:47;;;;;;;16.80;8.50;;;;;;;;;;5074880;28;20074;-76
2023/07/25 01:33:12;;;;;;;9.18;6.15;;;;;;;;;;5057189;28;20044;-77
2023/07/25 01:35:37;;;;;;;7.40;6.20;;;;;;;;;;5074888;28;20028;-78
2023/07/25 01:38:03;;;;;;;9.13;6.50;;;;;;;;;;5075018;28;20415;-81
2023/07/25 01:40:29;;;;;;;9.27;6.65;;;;;;;;;;5074916;28;20032;-79
2023/07/25 01:42:55;;;;;;;7.90;5.32;;;;;;;;;;5073787;28;20089;-78
2023/07/25 01:45:20;;;;;;;5.68;4.63;;;;;;;;;;5074717;28;20028;-78
2023/07/25 01:47:45;;;;;;;5.18;4.70;;;;;;;;;;5074651;28;20067;-79
2023/07/25 01:50:11;;;;;;;5.63;4.50;;;;;;;;;;5074503;28;20040;-78
2023/07/25 01:52:36;;;;;;;6.22;4.93;;;;;;;;;;5073540;28;20194;-77
2023/07/25 01:55:02;;;;;;;7.18;4.45;;;;;;;;;;5073147;28;20020;-77
2023/07/25 01:57:29;;;;;;;5.75;4.53;;;;;;;;;;5072798;28;20488;-76
2023/07/25 01:59:56;;;;;;;6.53;4.60;;;;;;;;;;5072962;28;20039;-78
2023/07/25 02:02:24;;;;;;;7.15;5.35;;;;;;;;;;5073305;28;20025;-76
2023/07/25 02:04:49;;;;;;;7.68;5.53;;;;;;;;;;5073848;28;20032;-77
2023/07/25 02:07:19;;;;;;;5.07;4.57;;;;;;;;;;5073949;28;20077;-76
2023/07/25 02:09:44;;;;;;;6.50;5.20;;;;;;;;;;5074156;28;20033;-75
2023/07/25 02:12:11;;;;;;;12.18;8.93;;;;;;;;;;5074494;28;20023;-78
2023/07/25 02:14:36;;;;;;;9.95;6.63;;;;;;;;;;5072936;28;20541;-81
2023/07/25 02:17:04;;;;;;;6.90;5.80;;;;;;;;;;5074074;28;20032;-80
2023/07/25 02:19:29;;;;;;;7.30;5.30;;;;;;;;;;5072674;28;20349;-75
2023/07/25 02:21:54;;;;;;;11.55;7.53;;;;;;;;;;5056102;28;20039;-76
2023/07/25 02:24:19;;;;;;;13.60;8.70;;;;;;;;;;5074401;28;20103;-75
2023/07/25 02:26:45;;;;;;;7.97;6.03;;;;;;;;;;5072677;28;20081;-77
2023/07/25 02:29:10;;;;;;;9.48;6.15;;;;;;;;;;5072921;28;20024;-76
2023/07/25 02:31:36;;;;;;;7.25;6.50;;;;;;;;;;5073067;28;20059;-76
2023/07/25 02:34:01;;;;;;;8.00;6.90;;;;;;;;;;5073891;28;20031;-76
2023/07/25 02:36:27;;;;;;;7.03;6.15;;;;;;;;;;5074046;28;20016;-81
2023/07/25 02:38:53;;;;;;;5.97;5.38;;;;;;;;;;5075344;23;20054;-76
2023/07/25 02:41:18;;;;;;;7.20;4.93;;;;;;;;;;5037616;23;20458;-80
2023/07/25 02:43:44;;;;;;;6.97;5.45;;;;;;;;;;4993954;28;20038;-75
2023/07/25 02:46:15;;;;;;;5.15;4.35;;;;;;;;;;4993374;28;20062;-76
2023/07/25 02:48:40;;;;;;;6.75;5.68;;;;;;;;;;4976752;28;20050;-75
2023/07/25 02:51:07;;;;;;;7.97;6.78;;;;;;;;;;4992935;28;20110;-75
2023/07/25 02:53:33;;;;;;;8.10;6.25;;;;;;;;;;4976730;28;20070;-75
2023/07/25 02:55:58;;;;;;;8.57;6.57;;;;;;;;;;4994072;28;20556;-75
2023/07/25 02:58:24;;;;;;;7.45;6.68;;;;;;;;;;4994403;28;20040;-75
2023/07/25 03:00:49;;;;;;;8.35;7.18;;;;;;;;;;4994459;28;20469;-75
2023/07/25 03:03:15;;;;;;;12.95;7.80;;;;;;;;;;4976683;28;20026;-76
2023/07/25 03:05:40;;;;;;;9.75;8.15;;;;;;;;;;5013067;28;20037;-76
2023/07/25 03:08:06;;;;;;;17.08;9.05;;;;;;;;;;4997601;28;20065;-77
2023/07/25 03:10:31;;;;;;;9.45;5.93;;;;;;;;;;4997907;28;20177;-76
2023/07/25 03:12:57;;;;;;;9.10;5.93;;;;;;;;;;4998145;28;20027;-76
2023/07/25 03:15:22;;;;;;;7.28;5.88;;;;;;;;;;4997857;28;20034;-76
2023/07/25 03:17:48;;;;;;;6.93;6.05;;;;;;;;;;4980363;28;20035;-76
2023/07/25 03:20:13;;;;;;;6.63;5.45;;;;;;;;;;4979808;28;20669;-77
2023/07/25 03:22:39;;;;;;;7.80;6.22;;;;;;;;;;4996334;28;20034;-79
2023/07/25 03:25:04;;;;;;;8.43;6.80;;;;;;;;;;4997651;28;20022;-79
2023/07/25 03:27:30;;;;;;;10.77;7.32;;;;;;;;;;4996738;28;20347;-79
2023/07/25 03:29:55;;;;;;;10.20;7.60;;;;;;;;;;4996376;28;20033;-76
2023/07/25 03:32:20;;;;;;;7.38;6.65;;;;;;;;;;4998127;28;20185;-76
2023/07/25 03:34:46;;;;;;;8.57;7.35;;;;;;;;;;4997492;28;20050;-76
2023/07/25 03:37:11;;;;;;;8.15;7.00;;;;;;;;;;5012499;28;20030;-76
2023/07/25 03:39:36;;;;;;;7.55;6.00;;;;;;;;;;4996217;28;20034;-76
2023/07/25 03:42:02;;;;;;;7.78;7.00;;;;;;;;;;4997298;28;20121;-76
2023/07/25 03:44:27;;;;;;;8.88;6.40;;;;;;;;;;4996168;28;20023;-76
2023/07/25 03:47:03;;;;;;;7.70;6.05;;;;;;;;;;5002281;23;20422;-81
2023/07/25 03:49:34;;;;;;;8.80;5.90;;;;;;;;;;5013466;28;20501;-87
2023/07/25 03:51:59;;;;;;;6.60;5.95;;;;;;;;;;4998610;28;20112;-76
2023/07/25 03:54:25;;;;;;;8.85;6.22;;;;;;;;;;4999182;28;20456;-77
2023/07/25 03:56:50;;;;;;;7.28;6.25;;;;;;;;;;5017106;28;20511;-77
2023/07/25 03:59:17;;;;;;;8.65;6.97;;;;;;;;;;5032552;28;20025;-77
2023/07/25 04:01:43;;;;;;;7.50;5.72;;;;;;;;;;5017099;28;20041;-78
2023/07/25 04:04:09;;;;;;;7.70;5.65;;;;;;;;;;5016859;28;20030;-78
2023/07/25 04:06:34;;;;;;;7.30;5.93;;;;;;;;;;5016824;28;20068;-82
2023/07/25 04:09:01;;;;;;;9.60;6.05;;;;;;;;;;5016580;28;20026;-82
2023/07/25 04:11:26;;;;;;;7.00;5.93;;;;;;;;;;5032055;28;20026;-77
2023/07/25 04:13:53;;;;;;;9.15;6.78;;;;;;;;;;5016491;28;20524;-80
2023/07/25 04:16:18;;;;;;;8.63;7.05;;;;;;;;;;4997785;28;20061;-83
2023/07/25 04:18:54;;;;;;;7.90;6.82;;;;;;;;;;5015025;28;20104;-84
2023/07/25 04:21:19;;;;;;;7.47;5.85;;;;;;;;;;5016354;28;20038;-80
2023/07/25 04:23:46;;;;;;;8.98;5.97;;;;;;;;;;5015199;28;20037;-76
2023/07/25 04:26:11;;;;;;;7.20;6.50;;;;;;;;;;5014578;28;20025;-79
2023/07/25 04:28:37;;;;;;;8.07;6.50;;;;;;;;;;5015924;28;20481;-80
2023/07/25 04:31:03;;;;;;;6.72;6.07;;;;;;;;;;5014667;28;20109;-80
2023/07/25 04:33:28;;;;;;;7.40;6.60;;;;;;;;;;5014647;28;20107;-80
2023/07/25 04:35:53;;;;;;;9.15;6.63;;;;;;;;;;4998176;28;20084;-80
2023/07/25 04:38:19;;;;;;;8.38;7.38;;;;;;;;;;5031111;28;20499;-80
2023/07/25 04:40:44;;;;;;;8.85;6.50;;;;;;;;;;5015602;28;20030;-80
2023/07/25 04:43:10;;;;;;;10.35;7.28;;;;;;;;;;5031069;28;20473;-80
2023/07/25 04:45:35;;;;;;;10.02;7.70;;;;;;;;;;5014883;28;20080;-80
2023/07/25 04:48:00;;;;;;;8.63;6.95;;;;;;;;;;5011319;28;20074;-80
2023/07/25 04:50:28;;;;;;;9.93;7.18;;;;;;;;;;4995329;28;20061;-80
2023/07/25 04:52:53;;;;;;;9.32;7.22;;;;;;;;;;4995382;28;20076;-80
2023/07/25 04:55:19;;;;;;;8.77;7.28;;;;;;;;;;4994812;28;20437;-80
2023/07/25 04:57:44;;;;;;;9.82;6.80;;;;;;;;;;4996448;28;20041;-80
2023/07/25 05:00:10;;;;;;;12.50;7.32;;;;;;;;;;4994197;28;20038;-80
2023/07/25 05:02:35;;;;;;;11.32;8.30;;;;;;;;;;4995607;28;20038;-80
2023/07/25 05:05:00;;;;;;;10.93;8.27;;;;;;;;;;4995855;28;20033;-80
2023/07/25 05:07:26;;;;;;;12.30;8.73;;;;;;;;;;4995464;28;20089;-80
2023/07/25 05:09:51;;;;;;;10.32;8.18;;;;;;;;;;4995286;28;20038;-80
2023/07/25 05:12:16;;;;;;;11.90;8.52;;;;;;;;;;4995511;28;20026;-81
2023/07/25 05:14:42;;;;;;;12.45;8.48;;;;;;;;;;4995036;28;20478;-80
2023/07/25 05:17:07;;;;;;;11.23;8.77;;;;;;;;;;4995362;28;20034;-80
2023/07/25 05:19:39;;;;;;;9.50;7.55;;;;;;;;;;4995239;28;20153;-81
2023/07/25 05:22:05;;;;;;;11.27;7.53;;;;;;;;;;4995090;28;20462;-81
2023/07/25 05:24:31;;;;;;;13.35;8.07;;;;;;;;;;4995048;28;20041;-81
2023/07/25 05:26:56;;;;;;;12.88;7.60;;;;;;;;;;4994266;28;20041;-81
2023/07/25 05:29:21;;;;;;;9.70;7.28;;;;;;;;;;4993785;28;20462;-81
2023/07/25 05:31:47;;;;;;;9.10;6.60;;;;;;;;;;4994925;28;20030;-81
2023/07/25 05:34:12;;;;;;;12.43;7.55;;;;;;;;;;4993675;28;20032;-75
2023/07/25 05:36:37;;;;;;;11.25;7.95;;;;;;;;;;4994854;28;20023;-75
2023/07/25 05:39:03;;;;;;;15.80;8.52;;;;;;;;;;4993666;28;20030;-72
2023/07/25 05:41:28;;;;;;;9.43;7.38;;;;;;;;;;4994742;28;20073;-72
2023/07/25 05:43:53;;;;;;;11.35;6.85;;;;;;;;;;4994619;28;20453;-72
2023/07/25 05:46:18;;;;;;;12.75;7.55;;;;;;;;;;4994979;28;20465;-72
2023/07/25 05:48:44;;;;;;;11.48;8.30;;;;;;;;;;5007311;28;20038;-72
2023/07/25 05:51:09;;;;;;;13.63;7.88;;;;;;;;;;5014504;28;20520;-72
2023/07/25 05:53:35;;;;;;;10.25;7.32;;;;;;;;;;5014153;28;20084;-72
2023/07/25 05:56:00;;;;;;;13.18;7.60;;;;;;;;;;4996956;28;20156;-72
2023/07/25 05:58:26;;;;;;;10.57;6.28;;;;;;;;;;4997194;28;20124;-72
2023/07/25 06:00:51;;;;;;;13.25;7.35;;;;;;;;;;5014421;28;20038;-72
2023/07/25 06:03:17;;;;;;;11.23;6.47;;;;;;;;;;5012140;28;20041;-72
2023/07/25 06:05:42;;;;;;;9.02;6.78;;;;;;;;;;5012252;28;20018;-72
2023/07/25 06:08:08;;;;;;;9.93;6.25;;;;;;;;;;5012200;28;20030;-72
2023/07/25 06:10:34;;;;;;;12.32;7.47;;;;;;;;;;5012087;28;20028;-72
2023/07/25 06:12:59;;;;;;;12.13;6.53;;;;;;;;;;5012028;28;20033;-72
2023/07/25 06:15:25;;;;;;;13.60;6.30;;;;;;;;;;4978207;28;20112;-72
2023/07/25 06:17:50;;;;;;;13.15;6.30;;;;;;;;;;5011926;28;20044;-72
2023/07/25 06:20:16;;;;;;;10.48;6.22;;;;;;;;;;5011895;28;20030;-71
2023/07/25 06:22:41;;;;;;;8.10;6.32;;;;;;;;;;4978239;28;20079;-71
2023/07/25 06:25:12;;;;;;;11.07;6.60;;;;;;;;;;4996146;28;20034;-72
2023/07/25 06:27:38;;;;;;;8.82;6.30;;;;;;;;;;5013691;28;20056;-72
2023/07/25 06:30:03;;;;;;;8.85;5.75;;;;;;;;;;5013603;28;20018;-72
2023/07/25 06:32:29;;;;;;;8.93;5.93;;;;;;;;;;4996129;28;20034;-71
2023/07/25 06:34:55;;;;;;;10.18;6.40;;;;;;;;;;4996056;28;20034;-72
2023/07/25 06:37:20;;;;;;;11.10;6.57;;;;;;;;;;5013322;28;20124;-72
2023/07/25 06:39:45;;;;;;;9.20;6.28;;;;;;;;;;5013796;28;20080;-72
2023/07/25 06:42:10;;;;;;;8.32;6.35;;;;;;;;;;5013448;28;20033;-72
2023/07/25 06:44:36;;;;;;;10.27;7.07;;;;;;;;;;4995811;28;20022;-72
2023/07/25 06:47:02;;;;;;;8.13;4.90;;;;;;;;;;4995838;28;20073;-72
2023/07/25 06:49:27;;;;;;;7.20;5.72;;;;;;;;;;5013253;28;20053;-72
2023/07/25 06:51:55;;;;;;;10.07;6.28;;;;;;;;;;5013414;28;20111;-72
2023/07/25 06:54:21;;;;;;;8.23;5.20;;;;;;;;;;5013316;28;20041;-72
2023/07/25 06:56:46;;;;;;;9.93;5.07;;;;;;;;;;4995939;28;20018;-72
2023/07/25 06:59:11;;;;;;;5.53;4.82;;;;;;;;;;5013346;28;20057;-72
2023/07/25 07:01:37;;;;;;;5.90;5.15;;;;;;;;;;5013360;28;20029;-72
2023/07/25 07:04:02;;;;;;;8.05;5.13;;;;;;;;;;4995587;28;20037;-72
2023/07/25 07:06:27;;;;;;;7.70;4.78;;;;;;;;;;5013287;28;20026;-72
2023/07/25 07:08:53;;;;;;;10.70;5.68;;;;;;;;;;5013227;28;20029;-72
2023/07/25 07:11:18;;;;;;;7.65;5.45;;;;;;;;;;5013276;28;20382;-72
2023/07/25 07:13:43;;;;;;;7.97;5.53;;;;;;;;;;4995967;28;20117;-72
2023/07/25 07:16:09;;;;;;;10.30;5.03;;;;;;;;;;4995649;28;20394;-72
2023/07/25 07:18:34;;;;;;;6.82;5.63;;;;;;;;;;5013129;28;20037;-72
2023/07/25 07:21:00;;;;;;;9.52;5.95;;;;;;;;;;4995614;28;20041;-72
2023/07/25 07:23:26;;;;;;;9.20;5.97;;;;;;;;;;5013052;28;20476;-72
2023/07/25 07:25:51;;;;;;;9.20;5.60;;;;;;;;;;4995758;28;20049;-72
2023/07/25 07:28:17;;;;;;;7.22;6.18;;;;;;;;;;5013079;28;20386;-72
2023/07/25 07:30:47;;;;;;;6.90;5.57;;;;;;;;;;5012986;28;20389;-72
2023/07/25 07:33:12;;;;;;;;;;;;;;;;;;4995909;28;20033;-72
2023/07/25 07:35:38;;;;;;;7.40;5.93;;;;;;;;;;5013060;28;19916;-72
2023/07/25 07:38:03;;;;;;;9.93;6.43;;;;;;;;;;5012907;28;20037;-72
2023/07/25 07:40:28;;;;;;;8.10;6.07;;;;;;;;;;5013013;28;20025;-72
2023/07/25 07:42:54;;;;;;;11.80;6.15;;;;;;;;;;5012799;28;20026;-72
2023/07/25 07:45:19;;;;;;;8.48;5.72;;;;;;;;;;5012973;28;20056;-72
2023/07/25 07:47:44;;;;;;;12.20;7.55;;;;;;;;;;4995223;28;20034;-72
2023/07/25 07:50:11;;;;;;;7.32;5.93;;;;;;;;;;5014362;28;20033;-72
2023/07/25 07:52:41;;;;;;;7.22;5.22;;;;;;;;;;5015177;28;20033;-72
2023/07/25 07:55:08;;;;;;;11.65;6.07;;;;;;;;;;4998797;28;20042;-72
2023/07/25 07:57:36;;;;;;;11.00;5.35;;;;;;;;;;4998762;28;20030;-72
2023/07/25 08:00:04;;;;;;;13.85;6.38;;;;;;;;;;5016233;28;20124;-73
2023/07/25 08:02:37;;;;;;;11.35;6.88;;;;;;;;;;5016302;28;20041;-72
2023/07/25 08:05:03;;;;;;;11.05;6.80;;;;;;;;;;5016210;28;20030;-72
2023/07/25 08:07:29;;;;;;;11.55;6.18;;;;;;;;;;5016095;28;20045;-72
2023/07/25 08:09:54;;;;;;;11.00;6.63;;;;;;;;;;5016090;28;20056;-73
2023/07/25 08:12:20;;;;;;;10.13;6.70;;;;;;;;;;4998527;28;20535;-73
2023/07/25 08:14:45;;;;;;;8.63;5.22;;;;;;;;;;5016099;28;20116;-72
2023/07/25 08:17:11;;;;;;;7.50;5.80;;;;;;;;;;4998465;28;20084;-72
2023/07/25 08:19:36;;;;;;;9.05;5.55;;;;;;;;;;5015991;28;20048;-72
2023/07/25 08:22:01;;;;;;;10.80;5.95;;;;;;;;;;5015743;28;20466;-72
2023/07/25 08:24:26;;;;;;;9.05;5.55;;;;;;;;;;4998282;28;20037;-73
2023/07/25 08:26:52;;;;;;;9.35;5.95;;;;;;;;;;5015813;28;20104;-73
2023/07/25 08:29:17;;;;;;;8.68;6.32;;;;;;;;;;5015775;28;20028;-72
2023/07/25 08:31:42;;;;;;;11.85;6.93;;;;;;;;;;5015600;28;20030;-72
2023/07/25 08:34:08;;;;;;;12.68;7.53;;;;;;;;;;4998219;28;20036;-72
2023/07/25 08:36:33;;;;;;;8.52;6.25;;;;;;;;;;4998145;28;20474;-72
2023/07/25 08:38:59;;;;;;;11.50;5.95;;;;;;;;;;5015570;28;20436;-72
2023/07/25 08:41:25;;;;;;;8.95;7.13;;;;;;;;;;5015465;28;20108;-72
2023/07/25 08:43:53;;;;;;;10.88;6.90;;;;;;;;;;4997876;28;20373;-72
2023/07/25 08:46:19;;;;;;;13.77;8.73;;;;;;;;;;4997850;28;20080;-73
2023/07/25 08:48:46;;;;;;;12.43;8.05;;;;;;;;;;5015128;28;20045;-72
2023/07/25 08:51:14;;;;;;;8.98;7.07;;;;;;;;;;5015367;28;20480;-72
2023/07/25 08:56:25;;;;;;;10.30;6.95;;;;;;;;;;5001826;23;20062;-72
2023/07/25 08:58:50;;;;;;;10.30;7.13;;;;;;;;;;4978190;28;20591;-72
2023/07/25 09:01:17;;;;;;;9.60;6.63;;;;;;;;;;4978098;28;20026;-71
2023/07/25 09:03:42;;;;;;;9.88;7.50;;;;;;;;;;4995347;28;20065;-72
2023/07/25 09:06:09;;;;;;;11.48;6.68;;;;;;;;;;4995455;28;20018;-72
2023/07/25 09:08:34;;;;;;;10.48;7.75;;;;;;;;;;4977921;28;20466;-72
2023/07/25 09:10:59;;;;;;;10.77;7.80;;;;;;;;;;4977913;28;20084;-72
2023/07/25 09:13:25;;;;;;;12.25;7.95;;;;;;;;;;4977917;28;20038;-72
2023/07/25 09:15:50;;;;;;;10.15;7.57;;;;;;;;;;4995272;28;20386;-72
2023/07/25 09:18:16;;;;;;;11.00;7.75;;;;;;;;;;4977779;28;20034;-72
2023/07/25 09:20:41;;;;;;;8.70;6.20;;;;;;;;;;4977791;28;20030;-72
2023/07/25 09:23:06;;;;;;;9.85;7.22;;;;;;;;;;4995134;28;20413;-72
2023/07/25 09:25:31;;;;;;;11.05;7.88;;;;;;;;;;4977744;28;20030;-72
2023/07/25 09:27:57;;;;;;;11.73;7.20;;;;;;;;;;4995092;28;20050;-72
2023/07/25 09:30:26;;;;;;;12.10;6.10;;;;;;;;;;4977918;28;20031;-72
2023/07/25 09:32:52;;;;;;;7.70;4.93;;;;;;;;;;4995002;28;20039;-72
2023/07/25 09:35:17;;;;;;;5.78;4.85;;;;;;;;;;4995007;28;20033;-71
2023/07/25 09:37:50;;;;;;;7.28;4.85;;;;;;;;;;4994814;28;20112;-72
2023/07/25 09:40:15;;;;;;;8.20;5.20;;;;;;;;;;4961287;28;20062;-72
2023/07/25 09:42:41;;;;;;;7.05;5.30;;;;;;;;;;4994628;28;20090;-72
2023/07/25 09:45:07;;;;;;;11.65;7.45;;;;;;;;;;4994807;28;20026;-72
2023/07/25 09:47:33;;;;;;;9.68;6.53;;;;;;;;;;4977143;28;20466;-72
2023/07/25 09:49:59;;;;;;;9.48;6.97;;;;;;;;;;4994639;28;20029;-71
2023/07/25 09:52:25;;;;;;;9.23;6.32;;;;;;;;;;4994533;28;20363;-72
2023/07/25 09:54:50;;;;;;;8.10;6.38;;;;;;;;;;4976977;28;20038;-72
2023/07/25 09:57:17;;;;;;;8.55;5.95;;;;;;;;;;4994551;28;20034;-72
2023/07/25 09:59:42;;;;;;;8.45;5.93;;;;;;;;;;4994454;28;20023;-72
2023/07/25 10:02:08;;;;;;;11.05;5.93;;;;;;;;;;4994325;28;20505;-72
2023/07/25 10:04:37;;;;;;;9.00;6.90;;;;;;;;;;4994377;28;20023;-72
2023/07/25 10:07:02;;;;;;;10.23;6.70;;;;;;;;;;4994328;28;20065;-73
2023/07/25 10:09:31;;;;;;;8.05;6.05;;;;;;;;;;4994316;28;20054;-72
2023/07/25 10:11:56;;;;;;;6.35;4.78;;;;;;;;;;4994137;28;20018;-72
2023/07/25 10:14:22;;;;;;;5.57;4.82;;;;;;;;;;4993918;28;20491;-72
2023/07/25 10:16:47;;;;;;;5.68;4.20;;;;;;;;;;4994228;28;20053;-72
2023/07/25 10:19:12;;;;;;;4.78;4.10;;;;;;;;;;4994163;28;20041;-72
2023/07/25 10:21:53;;;;;;;7.47;4.32;;;;;;;;;;4994141;28;20062;-73
2023/07/25 10:24:18;;;;;;;;;;;;;;;;;;4994493;28;20030;-72
2023/07/25 10:26:53;;;;;;;4.40;3.72;;;;;;;;;;4994027;28;19989;-72
2023/07/25 10:29:37;;;;;;;5.20;4.53;;;;;;;;;;4993995;28;20030;-72
2023/07/25 10:32:03;;;;;;;4.75;4.32;;;;;;;;;;4976617;28;20035;-72
2023/07/25 10:34:54;;;;;;;4.32;3.92;;;;;;;;;;4993976;28;20145;-72
2023/07/25 10:37:20;;;;;;;5.32;3.53;;;;;;;;;;4972678;28;20055;-72
2023/07/25 10:39:46;;;;;;;3.78;3.47;;;;;;;;;;4994186;28;20026;-72
2023/07/25 10:42:15;;;;;;;3.85;3.55;;;;;;;;;;4976598;28;20038;-72
2023/07/25 10:44:41;;;;;;;4.57;4.07;;;;;;;;;;4993857;28;20113;-72
2023/07/25 10:47:25;;;;;;;3.78;3.47;;;;;;;;;;4976386;28;20526;-72
2023/07/25 10:49:55;;;;;;;4.85;4.30;;;;;;;;;;4976756;28;20034;-72
2023/07/25 10:52:39;;;;;;;4.22;3.83;;;;;;;;;;4993776;28;20038;-72
2023/07/25 10:55:05;;;;;;;4.22;3.83;;;;;;;;;;4993549;28;20049;-72
2023/07/25 10:57:30;;;;;;;4.68;4.20;;;;;;;;;;4993724;28;20034;-72
2023/07/25 10:59:59;;;;;;;4.63;4.22;;;;;;;;;;4993754;28;20030;-72
2023/07/25 11:02:42;;;;;;;5.03;3.67;;;;;;;;;;4993530;28;20066;-72
2023/07/25 11:05:14;;;;;;;4.45;3.80;;;;;;;;;;4993670;28;20026;-72
2023/07/25 11:07:45;;;;;;;4.82;4.38;;;;;;;;;;4993676;28;20030;-72
2023/07/25 11:10:10;;;;;;;5.10;3.78;;;;;;;;;;4993657;28;20081;-72
2023/07/25 11:12:36;;;;;;;3.40;3.20;;;;;;;;;;4993900;28;20057;-72
2023/07/25 11:15:01;;;;;;;6.53;3.90;;;;;;;;;;4993643;28;20164;-72
2023/07/25 11:17:27;;;;;;;4.57;3.92;;;;;;;;;;4993652;28;20089;-72
2023/07/25 11:19:52;;;;;;;4.28;3.72;;;;;;;;;;4993504;28;20035;-72
2023/07/25 11:22:18;;;;;;;4.75;4.18;;;;;;;;;;4993437;28;20035;-72
2023/07/25 11:24:44;;;;;;;10.52;4.40;;;;;;;;;;4994282;28;20038;-72
2023/07/25 11:27:10;;;;;;;4.47;4.07;;;;;;;;;;4997276;28;20026;-73
2023/07/25 11:29:35;;;;;;;4.60;4.15;;;;;;;;;;4997309;28;20489;-72
2023/07/25 11:32:01;;;;;;;6.65;5.18;;;;;;;;;;4979877;28;20069;-72
2023/07/25 11:34:26;;;;;;;4.00;3.70;;;;;;;;;;4997212;28;20023;-72
2023/07/25 11:36:52;;;;;;;4.15;3.75;;;;;;;;;;4997134;28;20031;-72
2023/07/25 11:39:18;;;;;;;6.53;3.45;;;;;;;;;;4997147;28;20026;-72
2023/07/25 11:41:44;;;;;;;19.02;5.35;;;;;;;;;;4997029;28;20042;-72
2023/07/25 11:44:11;;;;;;;6.45;3.83;;;;;;;;;;4992185;23;20046;-72
2023/07/25 11:46:37;;;;;;;4.38;3.38;;;;;;;;;;4991460;23;20058;-72
2023/07/25 11:49:03;;;;;;;3.30;3.05;;;;;;;;;;4996929;28;20030;-72
2023/07/25 11:51:30;;;;;;;3.90;3.60;;;;;;;;;;4995730;28;20028;-72
2023/07/25 11:53:56;;;;;;;4.57;4.03;;;;;;;;;;4995603;28;20026;-73
2023/07/25 11:56:21;;;;;;;4.15;3.75;;;;;;;;;;4995601;28;20018;-72
2023/07/25 11:58:50;;;;;;;5.22;3.67;;;;;;;;;;4995517;28;20061;-72
2023/07/25 12:01:25;;;;;;;3.95;3.42;;;;;;;;;;4995484;28;20034;-72
2023/07/25 12:03:50;;;;;;;4.10;3.78;;;;;;;;;;4996603;28;20498;-72
2023/07/25 12:09:02;;;;;;;5.00;4.43;;;;;;;;;;5002801;23;20065;-72
2023/07/25 12:11:28;;;;;;;5.80;4.18;;;;;;;;;;4959905;28;20023;-72
2023/07/25 12:13:54;;;;;;;5.25;3.92;;;;;;;;;;4977104;28;20035;-72
2023/07/25 12:16:24;;;;;;;5.28;4.35;;;;;;;;;;4977077;28;20026;-72
2023/07/25 12:18:51;;;;;;;4.72;4.28;;;;;;;;;;4977067;28;20066;-72
2023/07/25 12:21:23;;;;;;;5.15;4.30;;;;;;;;;;4976943;28;20489;-73
2023/07/25 12:23:50;;;;;;;4.22;3.90;;;;;;;;;;4976846;28;20046;-72
2023/07/25 12:26:20;;;;;;;7.53;4.43;;;;;;;;;;4976795;28;20454;-72
2023/07/25 12:28:45;;;;;;;4.78;3.88;;;;;;;;;;4976815;28;20513;-72
2023/07/25 12:31:11;;;;;;;4.40;4.00;;;;;;;;;;4959523;28;20035;-72
2023/07/25 12:33:37;;;;;;;5.00;4.50;;;;;;;;;;4976688;28;20496;-72
2023/07/25 12:36:03;;;;;;;6.68;4.47;;;;;;;;;;4959043;28;20034;-72
2023/07/25 12:38:28;;;;;;;5.30;4.78;;;;;;;;;;4976660;28;20023;-73
2023/07/25 12:40:53;;;;;;;4.90;4.40;;;;;;;;;;4959303;28;20038;-72
2023/07/25 12:43:20;;;;;;;5.63;4.65;;;;;;;;;;4976528;28;20550;-72
2023/07/25 12:45:45;;;;;;;4.90;4.15;;;;;;;;;;4976429;28;20031;-73
2023/07/25 12:48:11;;;;;;;5.30;4.22;;;;;;;;;;4976485;28;20158;-72
2023/07/25 12:50:38;;;;;;;5.07;4.43;;;;;;;;;;4959163;28;20042;-72
2023/07/25 12:53:04;;;;;;;5.30;4.60;;;;;;;;;;4976409;28;20493;-72
2023/07/25 12:55:29;;;;;;;4.85;4.35;;;;;;;;;;4976356;28;20109;-72
2023/07/25 12:57:55;;;;;;;4.68;4.28;;;;;;;;;;4976343;28;20033;-73
2023/07/25 13:00:20;;;;;;;5.40;4.10;;;;;;;;;;4959281;28;20118;-73
2023/07/25 13:02:46;;;;;;;3.97;3.67;;;;;;;;;;4976439;28;20038;-72
2023/07/25 13:05:11;;;;;;;4.50;4.10;;;;;;;;;;4976485;28;20054;-72
2023/07/25 13:07:36;;;;;;;4.32;3.97;;;;;;;;;;4976222;28;20027;-73
2023/07/25 13:10:03;;;;;;;4.57;3.58;;;;;;;;;;4991613;28;20035;-72
2023/07/25 13:12:30;;;;;;;3.75;3.30;;;;;;;;;;4976134;28;20478;-72
2023/07/25 13:14:55;;;;;;;6.25;4.22;;;;;;;;;;4975944;28;20126;-73
2023/07/25 13:17:20;;;;;;;4.00;3.65;;;;;;;;;;4941521;28;20498;-73
2023/07/25 13:19:46;;;;;;;3.70;3.40;;;;;;;;;;4974921;28;20031;-73
2023/07/25 13:22:11;;;;;;;4.93;3.95;;;;;;;;;;4957735;28;20081;-73
2023/07/25 13:24:36;;;;;;;5.45;3.70;;;;;;;;;;4974951;28;20043;-72
2023/07/25 13:27:02;;;;;;;4.40;3.90;;;;;;;;;;4958701;28;20080;-73
2023/07/25 13:29:27;;;;;;;4.15;3.85;;;;;;;;;;4975074;28;20030;-73
2023/07/25 13:31:53;;;;;;;5.25;3.85;;;;;;;;;;4989673;28;20074;-73
2023/07/25 13:34:24;;;;;;;4.45;4.05;;;;;;;;;;4974429;28;20027;-73
2023/07/25 13:36:50;;;;;;;4.75;3.90;;;;;;;;;;4957547;28;20130;-73
2023/07/25 13:39:15;;;;;;;4.07;3.63;;;;;;;;;;4974739;28;20110;-72
2023/07/25 13:41:41;;;;;;;6.38;4.05;;;;;;;;;;4974833;28;20110;-73
2023/07/25 13:44:07;;;;;;;3.85;3.55;;;;;;;;;;4957233;28;20122;-73
2023/07/25 13:46:32;;;;;;;5.43;3.90;;;;;;;;;;4974736;28;20035;-72
2023/07/25 13:48:57;;;;;;;4.43;3.80;;;;;;;;;;4973952;28;20030;-73
2023/07/25 13:51:23;;;;;;;4.70;3.95;;;;;;;;;;4957305;28;20390;-73
2023/07/25 13:53:48;;;;;;;4.55;3.55;;;;;;;;;;4974466;28;20062;-73
2023/07/25 13:56:14;;;;;;;6.43;4.15;;;;;;;;;;4974506;28;20049;-73
2023/07/25 13:58:39;;;;;;;5.55;3.80;;;;;;;;;;4974623;28;20386;-72
2023/07/25 14:01:05;;;;;;;5.53;3.78;;;;;;;;;;4974615;28;20046;-73
2023/07/25 14:03:30;;;;;;;4.40;4.00;;;;;;;;;;4957137;28;20509;-73
2023/07/25 14:05:56;;;;;;;4.55;4.15;;;;;;;;;;4974576;28;20109;-72
2023/07/25 14:08:21;;;;;;;4.32;3.90;;;;;;;;;;4974231;28;20130;-73
2023/07/25 14:10:46;;;;;;;3.97;3.60;;;;;;;;;;4974814;28;20031;-72
2023/07/25 14:13:12;;;;;;;4.13;3.70;;;;;;;;;;4974832;28;20093;-73
2023/07/25 14:15:37;;;;;;;5.10;4.05;;;;;;;;;;4957742;28;20042;-73
2023/07/25 14:18:03;;;;;;;4.43;4.03;;;;;;;;;;4972887;28;20073;-72
2023/07/25 14:20:28;;;;;;;5.72;4.20;;;;;;;;;;4969631;28;20030;-74
2023/07/25 14:22:54;;;;;;;6.38;3.70;;;;;;;;;;4971192;28;20542;-72
2023/07/25 14:25:19;;;;;;;4.20;3.80;;;;;;;;;;4974064;28;20065;-72
2023/07/25 14:27:46;;;;;;;7.35;4.00;;;;;;;;;;4974297;28;20473;-71
2023/07/25 14:30:11;;;;;;;4.38;3.97;;;;;;;;;;4970358;28;20038;-72
2023/07/25 14:32:43;;;;;;;5.47;3.80;;;;;;;;;;4935925;28;20089;-72
2023/07/25 14:35:08;;;;;;;4.88;4.25;;;;;;;;;;4969953;28;20037;-71
2023/07/25 14:37:34;;;;;;;4.60;3.65;;;;;;;;;;4972003;28;20031;-72
2023/07/25 14:39:59;;;;;;;4.00;3.70;;;;;;;;;;4970710;28;20041;-71